sensor_id;sensor_type;location;lat;lon;timestamp;pressure;altitude;pressure_sealevel;temperature;humidity
50384;BME280;36301;48.310;12.786;2023-11-19T00:01:43;96380.66;;;2.60;100.00
50384;BME280;36301;48.310;12.786;2023-11-19T00:04:10;96372.03;;;2.59;100.00
50384;BME280;36301;48.310;12.786;2023-11-19T00:06:36;96370.09;;;2.74;100.00
50384;BME280;36301;48.310;12.786;2023-11-19T00:09:04;96375.91;;;2.71;100.00
50384;BME280;36301;48.310;12.786;2023-11-19T00:11:34;96377.78;;;2.79;100.00
50384;BME280;36301;48.310;12.786;2023-11-19T00:14:00;96376.84;;;2.75;100.00
50384;BME280;36301;48.310;12.786;2023-11-19T00:16:27;96374.50;;;2.73;100.00
50384;BME280;36301;48.310;12.786;2023-11-19T00:18:54;96379.47;;;2.75;100.00
50384;BME280;36301;48.310;12.786;2023-11-19T00:21:21;96387.63;;;2.82;100.00
50384;BME280;36301;48.310;12.786;2023-11-19T00:23:48;96385.47;;;2.84;100.00
50384;BME280;36301;48.310;12.786;2023-11-19T00:26:14;96374.41;;;2.87;100.00
50384;BME280;36301;48.310;12.786;2023-11-19T00:28:41;96376.88;;;2.92;100.00
50384;BME280;36301;48.310;12.786;2023-11-19T00:31:09;96379.94;;;2.85;100.00
50384;BME280;36301;48.310;12.786;2023-11-19T00:33:36;96374.22;;;2.83;100.00
50384;BME280;36301;48.310;12.786;2023-11-19T00:36:15;96369.47;;;2.85;100.00
50384;BME280;36301;48.310;12.786;2023-11-19T00:38:42;96371.59;;;2.83;100.00
50384;BME280;36301;48.310;12.786;2023-11-19T00:41:08;96357.16;;;2.86;100.00
50384;BME280;36301;48.310;12.786;2023-11-19T00:43:35;96359.19;;;2.89;100.00
50384;BME280;36301;48.310;12.786;2023-11-19T00:46:02;96357.78;;;2.92;100.00
50384;BME280;36301;48.310;12.786;2023-11-19T00:48:33;96341.81;;;2.84;100.00
50384;BME280;36301;48.310;12.786;2023-11-19T00:50:59;96345.19;;;2.85;100.00
50384;BME280;36301;48.310;12.786;2023-11-19T00:53:26;96340.72;;;2.85;100.00
50384;BME280;36301;48.310;12.786;2023-11-19T00:55:52;96327.97;;;2.84;100.00
50384;BME280;36301;48.310;12.786;2023-11-19T00:58:19;96335.63;;;2.80;100.00
50384;BME280;36301;48.310;12.786;2023-11-19T01:00:45;96330.41;;;2.89;100.00
50384;BME280;36301;48.310;12.786;2023-11-19T01:03:12;96328.41;;;2.86;100.00
50384;BME280;36301;48.310;12.786;2023-11-19T01:05:39;96321.31;;;2.69;100.00
50384;BME280;36301;48.310;12.786;2023-11-19T01:08:05;96325.03;;;2.85;100.00
50384;BME280;36301;48.310;12.786;2023-11-19T01:10:32;96320.56;;;2.86;100.00
50384;BME280;36301;48.310;12.786;2023-11-19T01:13:00;96323.50;;;2.84;100.00
50384;BME280;36301;48.310;12.786;2023-11-19T01:15:26;96315.16;;;2.82;100.00
50384;BME280;36301;48.310;12.786;2023-11-19T01:17:53;96318.88;;;2.90;100.00
50384;BME280;36301;48.310;12.786;2023-11-19T01:20:20;96318.41;;;2.88;100.00
50384;BME280;36301;48.310;12.786;2023-11-19T01:22:47;96328.88;;;2.88;100.00
50384;BME280;36301;48.310;12.786;2023-11-19T01:25:15;96325.34;;;2.84;100.00
50384;BME280;36301;48.310;12.786;2023-11-19T01:27:42;96321.94;;;2.83;100.00
50384;BME280;36301;48.310;12.786;2023-11-19T01:30:09;96302.41;;;2.72;100.00
50384;BME280;36301;48.310;12.786;2023-11-19T01:32:39;96309.81;;;2.79;100.00
50384;BME280;36301;48.310;12.786;2023-11-19T01:35:07;96303.00;;;2.78;100.00
50384;BME280;36301;48.310;12.786;2023-11-19T01:37:34;96305.19;;;2.76;100.00
50384;BME280;36301;48.310;12.786;2023-11-19T01:40:02;96297.50;;;2.79;100.00
50384;BME280;36301;48.310;12.786;2023-11-19T01:42:39;96292.41;;;2.83;100.00
50384;BME280;36301;48.310;12.786;2023-11-19T01:45:06;96292.25;;;2.88;100.00
50384;BME280;36301;48.310;12.786;2023-11-19T01:47:35;96274.41;;;2.73;100.00
50384;BME280;36301;48.310;12.786;2023-11-19T01:50:03;96274.09;;;2.66;100.00
50384;BME280;36301;48.310;12.786;2023-11-19T01:52:34;96273.50;;;2.77;100.00
50384;BME280;36301;48.310;12.786;2023-11-19T01:55:03;96257.03;;;2.85;100.00
50384;BME280;36301;48.310;12.786;2023-11-19T01:57:30;96249.53;;;2.84;100.00
50384;BME280;36301;48.310;12.786;2023-11-19T01:59:57;96252.59;;;2.86;100.00
50384;BME280;36301;48.310;12.786;2023-11-19T02:02:25;96255.97;;;2.95;100.00
50384;BME280;36301;48.310;12.786;2023-11-19T02:04:53;96241.81;;;2.96;100.00
50384;BME280;36301;48.310;12.786;2023-11-19T02:07:19;96252.28;;;2.96;100.00
50384;BME280;36301;48.310;12.786;2023-11-19T02:09:47;96244.09;;;2.98;100.00
50384;BME280;36301;48.310;12.786;2023-11-19T02:12:13;96251.66;;;2.99;100.00
50384;BME280;36301;48.310;12.786;2023-11-19T02:14:41;96241.34;;;2.85;100.00
50384;BME280;36301;48.310;12.786;2023-11-19T02:17:25;96243.03;;;2.99;100.00
50384;BME280;36301;48.310;12.786;2023-11-19T02:19:51;96245.63;;;2.99;100.00
50384;BME280;36301;48.310;12.786;2023-11-19T02:22:18;96233.34;;;2.99;100.00
50384;BME280;36301;48.310;12.786;2023-11-19T02:24:46;96226.25;;;3.08;100.00
50384;BME280;36301;48.310;12.786;2023-11-19T02:27:26;96221.94;;;3.04;100.00
50384;BME280;36301;48.310;12.786;2023-11-19T02:29:57;96213.16;;;3.08;100.00
50384;BME280;36301;48.310;12.786;2023-11-19T02:32:27;96216.72;;;3.12;100.00
50384;BME280;36301;48.310;12.786;2023-11-19T02:34:54;96217.94;;;3.06;100.00
50384;BME280;36301;48.310;12.786;2023-11-19T02:37:34;96219.31;;;3.04;100.00
50384;BME280;36301;48.310;12.786;2023-11-19T02:40:00;96213.66;;;3.02;100.00
50384;BME280;36301;48.310;12.786;2023-11-19T02:42:29;96212.13;;;3.01;100.00
50384;BME280;36301;48.310;12.786;2023-11-19T02:44:56;96196.09;;;3.11;100.00
50384;BME280;36301;48.310;12.786;2023-11-19T02:47:23;96194.53;;;3.19;100.00
50384;BME280;36301;48.310;12.786;2023-11-19T02:49:51;96187.63;;;3.14;100.00
50384;BME280;36301;48.310;12.786;2023-11-19T02:52:19;96185.47;;;3.07;100.00
50384;BME280;36301;48.310;12.786;2023-11-19T02:54:46;96191.47;;;3.08;100.00
50384;BME280;36301;48.310;12.786;2023-11-19T02:57:12;96183.16;;;3.15;100.00
50384;BME280;36301;48.310;12.786;2023-11-19T02:59:48;96173.16;;;3.08;100.00
50384;BME280;36301;48.310;12.786;2023-11-19T03:02:15;96177.47;;;3.12;100.00
50384;BME280;36301;48.310;12.786;2023-11-19T03:04:42;96164.72;;;3.02;100.00
50384;BME280;36301;48.310;12.786;2023-11-19T03:07:10;96142.41;;;3.05;100.00
50384;BME280;36301;48.310;12.786;2023-11-19T03:09:36;96147.78;;;3.08;100.00
50384;BME280;36301;48.310;12.786;2023-11-19T03:12:07;96152.84;;;3.13;100.00
50384;BME280;36301;48.310;12.786;2023-11-19T03:14:33;96149.78;;;3.11;100.00
50384;BME280;36301;48.310;12.786;2023-11-19T03:17:03;96138.81;;;3.18;100.00
50384;BME280;36301;48.310;12.786;2023-11-19T03:19:31;96143.28;;;3.18;100.00
50384;BME280;36301;48.310;12.786;2023-11-19T03:21:58;96128.06;;;3.20;100.00
50384;BME280;36301;48.310;12.786;2023-11-19T03:24:26;96131.56;;;3.24;100.00
50384;BME280;36301;48.310;12.786;2023-11-19T03:26:52;96130.97;;;3.27;100.00
50384;BME280;36301;48.310;12.786;2023-11-19T03:29:19;96119.44;;;3.19;100.00
50384;BME280;36301;48.310;12.786;2023-11-19T03:31:45;96118.84;;;3.13;100.00
50384;BME280;36301;48.310;12.786;2023-11-19T03:34:12;96124.38;;;3.21;100.00
50384;BME280;36301;48.310;12.786;2023-11-19T03:36:39;96116.03;;;3.27;100.00
50384;BME280;36301;48.310;12.786;2023-11-19T03:39:06;96118.47;;;3.32;100.00
50384;BME280;36301;48.310;12.786;2023-11-19T03:41:33;96120.50;;;3.27;100.00
50384;BME280;36301;48.310;12.786;2023-11-19T03:44:02;96120.06;;;3.25;100.00
50384;BME280;36301;48.310;12.786;2023-11-19T03:46:29;96120.16;;;3.28;100.00
50384;BME280;36301;48.310;12.786;2023-11-19T03:48:56;96118.59;;;3.36;100.00
50384;BME280;36301;48.310;12.786;2023-11-19T03:51:23;96107.38;;;3.35;100.00
50384;BME280;36301;48.310;12.786;2023-11-19T03:53:50;96108.31;;;3.31;100.00
50384;BME280;36301;48.310;12.786;2023-11-19T03:56:16;96110.94;;;3.31;100.00
50384;BME280;36301;48.310;12.786;2023-11-19T03:58:43;96111.56;;;3.28;100.00
50384;BME280;36301;48.310;12.786;2023-11-19T04:01:12;96111.53;;;3.36;100.00
50384;BME280;36301;48.310;12.786;2023-11-19T04:03:42;96114.59;;;3.38;100.00
50384;BME280;36301;48.310;12.786;2023-11-19T04:06:11;96117.97;;;3.39;100.00
50384;BME280;36301;48.310;12.786;2023-11-19T04:08:38;96111.34;;;3.42;100.00
50384;BME280;36301;48.310;12.786;2023-11-19T04:11:04;96112.88;;;3.43;100.00
50384;BME280;36301;48.310;12.786;2023-11-19T04:13:31;96114.72;;;3.42;100.00
50384;BME280;36301;48.310;12.786;2023-11-19T04:15:58;96116.72;;;3.45;100.00
50384;BME280;36301;48.310;12.786;2023-11-19T04:18:24;96115.16;;;3.44;100.00
50384;BME280;36301;48.310;12.786;2023-11-19T04:20:51;96105.63;;;3.48;100.00
50384;BME280;36301;48.310;12.786;2023-11-19T04:23:17;96110.22;;;3.51;100.00
50384;BME280;36301;48.310;12.786;2023-11-19T04:25:44;96100.53;;;3.52;100.00
50384;BME280;36301;48.310;12.786;2023-11-19T04:28:10;96098.22;;;3.50;100.00
50384;BME280;36301;48.310;12.786;2023-11-19T04:30:37;96106.97;;;3.54;100.00
50384;BME280;36301;48.310;12.786;2023-11-19T04:33:04;96097.59;;;3.53;100.00
50384;BME280;36301;48.310;12.786;2023-11-19T04:35:30;96102.97;;;3.57;100.00
50384;BME280;36301;48.310;12.786;2023-11-19T04:37:57;96093.88;;;3.54;100.00
50384;BME280;36301;48.310;12.786;2023-11-19T04:40:24;96093.00;;;3.50;100.00
50384;BME280;36301;48.310;12.786;2023-11-19T04:42:51;96094.34;;;3.56;100.00
50384;BME280;36301;48.310;12.786;2023-11-19T04:45:17;96092.16;;;3.58;100.00
50384;BME280;36301;48.310;12.786;2023-11-19T04:47:44;96093.22;;;3.66;100.00
50384;BME280;36301;48.310;12.786;2023-11-19T04:50:10;96091.88;;;3.60;100.00
50384;BME280;36301;48.310;12.786;2023-11-19T04:52:38;96092.44;;;3.66;100.00
50384;BME280;36301;48.310;12.786;2023-11-19T04:55:12;96093.66;;;3.68;100.00
50384;BME280;36301;48.310;12.786;2023-11-19T04:57:40;96103.97;;;3.64;100.00
50384;BME280;36301;48.310;12.786;2023-11-19T05:00:07;96097.22;;;3.63;100.00
50384;BME280;36301;48.310;12.786;2023-11-19T05:02:37;96095.84;;;3.66;100.00
50384;BME280;36301;48.310;12.786;2023-11-19T05:05:04;96094.75;;;3.67;100.00
50384;BME280;36301;48.310;12.786;2023-11-19T05:07:31;96096.78;;;3.61;100.00
50384;BME280;36301;48.310;12.786;2023-11-19T05:09:57;96101.69;;;3.63;100.00
50384;BME280;36301;48.310;12.786;2023-11-19T05:12:24;96104.78;;;3.65;100.00
50384;BME280;36301;48.310;12.786;2023-11-19T05:14:51;96109.53;;;3.63;100.00
50384;BME280;36301;48.310;12.786;2023-11-19T05:17:17;96109.88;;;3.61;100.00
50384;BME280;36301;48.310;12.786;2023-11-19T05:19:45;96102.34;;;3.60;100.00
50384;BME280;36301;48.310;12.786;2023-11-19T05:22:12;96103.09;;;3.60;100.00
50384;BME280;36301;48.310;12.786;2023-11-19T05:24:39;96105.41;;;3.62;100.00
50384;BME280;36301;48.310;12.786;2023-11-19T05:27:07;96098.81;;;3.56;100.00
50384;BME280;36301;48.310;12.786;2023-11-19T05:29:34;96098.94;;;3.59;100.00
50384;BME280;36301;48.310;12.786;2023-11-19T05:32:00;96102.97;;;3.57;100.00
50384;BME280;36301;48.310;12.786;2023-11-19T05:34:27;96106.91;;;3.63;100.00
50384;BME280;36301;48.310;12.786;2023-11-19T05:36:54;96088.03;;;3.57;100.00
50384;BME280;36301;48.310;12.786;2023-11-19T05:39:20;96093.69;;;3.59;100.00
50384;BME280;36301;48.310;12.786;2023-11-19T05:41:47;96092.63;;;3.60;100.00
50384;BME280;36301;48.310;12.786;2023-11-19T05:44:14;96088.03;;;3.57;100.00
50384;BME280;36301;48.310;12.786;2023-11-19T05:46:40;96084.06;;;3.51;100.00
50384;BME280;36301;48.310;12.786;2023-11-19T05:49:10;96079.25;;;3.53;100.00
50384;BME280;36301;48.310;12.786;2023-11-19T05:51:39;96078.88;;;3.63;100.00
50384;BME280;36301;48.310;12.786;2023-11-19T05:54:09;96091.50;;;3.70;100.00
50384;BME280;36301;48.310;12.786;2023-11-19T05:56:37;96091.53;;;3.61;100.00
50384;BME280;36301;48.310;12.786;2023-11-19T05:59:04;96087.50;;;3.64;100.00
50384;BME280;36301;48.310;12.786;2023-11-19T06:01:34;96082.22;;;3.73;100.00
50384;BME280;36301;48.310;12.786;2023-11-19T06:04:01;96078.09;;;3.72;100.00
50384;BME280;36301;48.310;12.786;2023-11-19T06:06:28;96090.66;;;3.78;100.00
50384;BME280;36301;48.310;12.786;2023-11-19T06:08:55;96097.44;;;3.79;100.00
50384;BME280;36301;48.310;12.786;2023-11-19T06:11:21;96091.75;;;3.77;100.00
50384;BME280;36301;48.310;12.786;2023-11-19T06:13:48;96101.47;;;3.77;100.00
50384;BME280;36301;48.310;12.786;2023-11-19T06:16:18;96093.75;;;3.80;100.00
50384;BME280;36301;48.310;12.786;2023-11-19T06:18:45;96096.47;;;3.84;100.00
50384;BME280;36301;48.310;12.786;2023-11-19T06:21:12;96108.00;;;3.92;100.00
50384;BME280;36301;48.310;12.786;2023-11-19T06:23:39;96103.53;;;3.92;100.00
50384;BME280;36301;48.310;12.786;2023-11-19T06:26:05;96094.56;;;3.93;100.00
50384;BME280;36301;48.310;12.786;2023-11-19T06:28:32;96082.69;;;3.96;100.00
50384;BME280;36301;48.310;12.786;2023-11-19T06:30:58;96067.22;;;3.82;100.00
50384;BME280;36301;48.310;12.786;2023-11-19T06:33:25;96070.94;;;3.81;100.00
50384;BME280;36301;48.310;12.786;2023-11-19T06:35:53;96076.75;;;3.86;100.00
50384;BME280;36301;48.310;12.786;2023-11-19T06:38:21;96091.38;;;3.87;100.00
50384;BME280;36301;48.310;12.786;2023-11-19T06:40:47;96088.00;;;3.87;100.00
50384;BME280;36301;48.310;12.786;2023-11-19T06:43:19;96088.00;;;3.87;100.00
50384;BME280;36301;48.310;12.786;2023-11-19T06:45:45;96076.25;;;3.93;100.00
50384;BME280;36301;48.310;12.786;2023-11-19T06:48:12;96079.44;;;3.99;100.00
50384;BME280;36301;48.310;12.786;2023-11-19T06:50:38;96089.28;;;4.02;100.00
50384;BME280;36301;48.310;12.786;2023-11-19T06:53:05;96097.72;;;4.07;100.00
50384;BME280;36301;48.310;12.786;2023-11-19T06:55:32;96098.66;;;4.03;100.00
50384;BME280;36301;48.310;12.786;2023-11-19T06:58:00;96077.75;;;3.94;100.00
50384;BME280;36301;48.310;12.786;2023-11-19T07:00:26;96103.19;;;4.14;100.00
50384;BME280;36301;48.310;12.786;2023-11-19T07:02:53;96097.94;;;4.14;100.00
50384;BME280;36301;48.310;12.786;2023-11-19T07:05:20;96085.81;;;4.10;100.00
50384;BME280;36301;48.310;12.786;2023-11-19T07:07:46;96096.03;;;4.24;100.00
50384;BME280;36301;48.310;12.786;2023-11-19T07:10:13;96090.78;;;4.24;100.00
50384;BME280;36301;48.310;12.786;2023-11-19T07:12:40;96082.31;;;4.27;100.00
50384;BME280;36301;48.310;12.786;2023-11-19T07:15:07;96085.03;;;4.30;100.00
50384;BME280;36301;48.310;12.786;2023-11-19T07:17:35;96079.50;;;4.32;100.00
50384;BME280;36301;48.310;12.786;2023-11-19T07:20:02;96082.53;;;4.34;100.00
50384;BME280;36301;48.310;12.786;2023-11-19T07:22:28;96089.69;;;4.46;100.00
50384;BME280;36301;48.310;12.786;2023-11-19T07:24:56;96095.06;;;4.49;100.00
50384;BME280;36301;48.310;12.786;2023-11-19T07:27:23;96100.41;;;4.53;100.00
50384;BME280;36301;48.310;12.786;2023-11-19T07:29:50;96104.91;;;4.52;100.00
50384;BME280;36301;48.310;12.786;2023-11-19T07:32:17;96107.00;;;4.59;100.00
50384;BME280;36301;48.310;12.786;2023-11-19T07:34:44;96108.53;;;4.60;100.00
50384;BME280;36301;48.310;12.786;2023-11-19T07:37:11;96104.94;;;4.64;100.00
50384;BME280;36301;48.310;12.786;2023-11-19T07:39:37;96097.53;;;4.66;100.00
50384;BME280;36301;48.310;12.786;2023-11-19T07:42:07;96092.06;;;4.72;100.00
50384;BME280;36301;48.310;12.786;2023-11-19T07:44:33;96096.66;;;4.75;100.00
50384;BME280;36301;48.310;12.786;2023-11-19T07:47:00;96103.75;;;4.74;100.00
50384;BME280;36301;48.310;12.786;2023-11-19T07:49:26;96106.38;;;4.74;100.00
50384;BME280;36301;48.310;12.786;2023-11-19T07:51:53;96102.47;;;4.80;100.00
50384;BME280;36301;48.310;12.786;2023-11-19T07:54:19;96107.41;;;4.82;100.00
50384;BME280;36301;48.310;12.786;2023-11-19T07:56:47;96109.16;;;4.90;100.00
50384;BME280;36301;48.310;12.786;2023-11-19T07:59:16;96102.38;;;4.89;100.00
50384;BME280;36301;48.310;12.786;2023-11-19T08:01:42;96108.81;;;4.91;100.00
50384;BME280;36301;48.310;12.786;2023-11-19T08:04:09;96108.88;;;5.04;100.00
50384;BME280;36301;48.310;12.786;2023-11-19T08:06:36;96099.25;;;5.08;100.00
50384;BME280;36301;48.310;12.786;2023-11-19T08:09:03;96091.59;;;5.15;100.00
50384;BME280;36301;48.310;12.786;2023-11-19T08:11:30;96097.19;;;5.26;100.00
50384;BME280;36301;48.310;12.786;2023-11-19T08:13:56;96092.38;;;5.28;100.00
50384;BME280;36301;48.310;12.786;2023-11-19T08:16:23;96088.88;;;5.36;100.00
50384;BME280;36301;48.310;12.786;2023-11-19T08:18:50;96078.91;;;5.41;100.00
50384;BME280;36301;48.310;12.786;2023-11-19T08:21:16;96079.69;;;5.42;100.00
50384;BME280;36301;48.310;12.786;2023-11-19T08:23:43;96091.06;;;5.58;100.00
50384;BME280;36301;48.310;12.786;2023-11-19T08:26:09;96080.75;;;5.65;100.00
50384;BME280;36301;48.310;12.786;2023-11-19T08:28:37;96086.22;;;5.72;100.00
50384;BME280;36301;48.310;12.786;2023-11-19T08:31:04;96084.69;;;5.84;100.00
50384;BME280;36301;48.310;12.786;2023-11-19T08:33:31;96082.16;;;6.00;100.00
50384;BME280;36301;48.310;12.786;2023-11-19T08:35:58;96079.84;;;6.10;100.00
50384;BME280;36301;48.310;12.786;2023-11-19T08:38:25;96079.72;;;6.19;100.00
50384;BME280;36301;48.310;12.786;2023-11-19T08:40:54;96076.59;;;6.29;100.00
50384;BME280;36301;48.310;12.786;2023-11-19T08:43:26;96083.56;;;6.37;100.00
50384;BME280;36301;48.310;12.786;2023-11-19T08:45:53;96064.94;;;6.42;100.00
50384;BME280;36301;48.310;12.786;2023-11-19T08:48:20;96066.41;;;6.56;100.00
50384;BME280;36301;48.310;12.786;2023-11-19T08:50:46;96068.81;;;6.76;100.00
50384;BME280;36301;48.310;12.786;2023-11-19T08:53:13;96057.38;;;6.85;100.00
50384;BME280;36301;48.310;12.786;2023-11-19T08:55:39;96063.16;;;7.06;100.00
50384;BME280;36301;48.310;12.786;2023-11-19T08:58:06;96058.06;;;7.13;100.00
50384;BME280;36301;48.310;12.786;2023-11-19T09:00:33;96059.25;;;7.32;100.00
50384;BME280;36301;48.310;12.786;2023-11-19T09:02:59;96064.13;;;7.49;100.00
50384;BME280;36301;48.310;12.786;2023-11-19T09:05:26;96069.38;;;7.65;100.00
50384;BME280;36301;48.310;12.786;2023-11-19T09:07:53;96070.94;;;7.85;100.00
50384;BME280;36301;48.310;12.786;2023-11-19T09:10:19;96075.41;;;8.00;100.00
50384;BME280;36301;48.310;12.786;2023-11-19T09:12:46;96065.81;;;8.47;100.00
50384;BME280;36301;48.310;12.786;2023-11-19T09:15:13;96073.59;;;9.05;100.00
50384;BME280;36301;48.310;12.786;2023-11-19T09:17:39;96066.19;;;9.37;100.00
50384;BME280;36301;48.310;12.786;2023-11-19T09:20:07;96059.44;;;9.66;100.00
50384;BME280;36301;48.310;12.786;2023-11-19T09:22:35;96063.75;;;9.78;100.00
50384;BME280;36301;48.310;12.786;2023-11-19T09:25:01;96066.91;;;9.60;100.00
50384;BME280;36301;48.310;12.786;2023-11-19T09:27:28;96064.22;;;9.57;100.00
50384;BME280;36301;48.310;12.786;2023-11-19T09:29:54;96068.97;;;9.48;100.00
50384;BME280;36301;48.310;12.786;2023-11-19T09:32:24;96066.69;;;9.46;100.00
50384;BME280;36301;48.310;12.786;2023-11-19T09:34:51;96066.09;;;9.56;100.00
50384;BME280;36301;48.310;12.786;2023-11-19T09:37:18;96050.09;;;9.46;100.00
50384;BME280;36301;48.310;12.786;2023-11-19T09:39:48;96050.25;;;9.56;100.00
50384;BME280;36301;48.310;12.786;2023-11-19T09:42:14;96045.81;;;9.64;100.00
50384;BME280;36301;48.310;12.786;2023-11-19T09:44:42;96048.66;;;9.78;100.00
50384;BME280;36301;48.310;12.786;2023-11-19T09:47:11;96055.19;;;9.88;100.00
50384;BME280;36301;48.310;12.786;2023-11-19T09:49:39;96052.47;;;10.11;100.00
50384;BME280;36301;48.310;12.786;2023-11-19T09:52:06;96042.84;;;10.26;100.00
50384;BME280;36301;48.310;12.786;2023-11-19T09:54:32;96025.13;;;10.30;100.00
50384;BME280;36301;48.310;12.786;2023-11-19T09:57:01;96022.06;;;10.61;100.00
50384;BME280;36301;48.310;12.786;2023-11-19T09:59:32;96044.84;;;10.70;100.00
50384;BME280;36301;48.310;12.786;2023-11-19T10:01:59;96041.00;;;10.67;100.00
50384;BME280;36301;48.310;12.786;2023-11-19T10:04:29;96049.22;;;10.55;100.00
50384;BME280;36301;48.310;12.786;2023-11-19T10:06:56;96051.78;;;10.48;100.00
50384;BME280;36301;48.310;12.786;2023-11-19T10:09:23;96054.09;;;10.49;100.00
50384;BME280;36301;48.310;12.786;2023-11-19T10:11:50;96050.97;;;10.44;100.00
50384;BME280;36301;48.310;12.786;2023-11-19T10:14:20;96049.88;;;10.48;100.00
50384;BME280;36301;48.310;12.786;2023-11-19T10:16:49;96051.88;;;10.55;100.00
50384;BME280;36301;48.310;12.786;2023-11-19T10:19:19;96053.56;;;10.36;100.00
50384;BME280;36301;48.310;12.786;2023-11-19T10:21:47;96055.72;;;10.27;100.00
50384;BME280;36301;48.310;12.786;2023-11-19T10:24:13;96037.69;;;10.36;100.00
50384;BME280;36301;48.310;12.786;2023-11-19T10:26:56;96031.88;;;10.61;100.00
50384;BME280;36301;48.310;12.786;2023-11-19T10:29:24;96027.41;;;10.69;100.00
50384;BME280;36301;48.310;12.786;2023-11-19T10:31:57;96025.31;;;10.88;100.00
50384;BME280;36301;48.310;12.786;2023-11-19T10:34:44;96021.06;;;11.21;100.00
50384;BME280;36301;48.310;12.786;2023-11-19T10:37:28;96022.13;;;11.13;100.00
50384;BME280;36301;48.310;12.786;2023-11-19T10:39:56;96023.94;;;11.02;100.00
50384;BME280;36301;48.310;12.786;2023-11-19T10:42:22;96009.59;;;11.10;100.00
50384;BME280;36301;48.310;12.786;2023-11-19T10:44:49;96010.00;;;11.12;100.00
50384;BME280;36301;48.310;12.786;2023-11-19T10:47:19;96012.22;;;11.06;100.00
50384;BME280;36301;48.310;12.786;2023-11-19T10:49:46;96020.19;;;11.06;100.00
50384;BME280;36301;48.310;12.786;2023-11-19T10:52:18;96021.66;;;11.04;100.00
50384;BME280;36301;48.310;12.786;2023-11-19T10:54:51;96015.22;;;11.05;100.00
50384;BME280;36301;48.310;12.786;2023-11-19T10:57:20;96010.38;;;11.14;100.00
50384;BME280;36301;48.310;12.786;2023-11-19T10:59:55;96006.53;;;11.04;100.00
50384;BME280;36301;48.310;12.786;2023-11-19T11:02:28;95999.03;;;11.13;100.00
50384;BME280;36301;48.310;12.786;2023-11-19T11:04:57;96001.81;;;11.31;100.00
50384;BME280;36301;48.310;12.786;2023-11-19T11:07:24;96005.41;;;11.64;100.00
50384;BME280;36301;48.310;12.786;2023-11-19T11:10:06;96014.56;;;11.74;100.00
50384;BME280;36301;48.310;12.786;2023-11-19T11:12:36;96012.72;;;11.81;100.00
50384;BME280;36301;48.310;12.786;2023-11-19T11:15:04;96017.63;;;11.79;100.00
50384;BME280;36301;48.310;12.786;2023-11-19T11:17:33;96029.19;;;12.12;100.00
50384;BME280;36301;48.310;12.786;2023-11-19T11:20:00;96014.78;;;12.20;100.00
50384;BME280;36301;48.310;12.786;2023-11-19T11:22:28;96004.19;;;12.31;100.00
50384;BME280;36301;48.310;12.786;2023-11-19T11:25:19;96019.38;;;12.27;100.00
50384;BME280;36301;48.310;12.786;2023-11-19T11:30:38;96017.50;;;12.38;100.00
50384;BME280;36301;48.310;12.786;2023-11-19T11:33:26;96017.94;;;12.58;100.00
50384;BME280;36301;48.310;12.786;2023-11-19T11:36:11;96017.94;;;12.58;100.00
50384;BME280;36301;48.310;12.786;2023-11-19T11:38:40;96016.03;;;12.58;100.00
50384;BME280;36301;48.310;12.786;2023-11-19T11:43:51;96005.06;;;12.74;100.00
50384;BME280;36301;48.310;12.786;2023-11-19T11:49:01;96007.34;;;12.79;100.00
50384;BME280;36301;48.310;12.786;2023-11-19T11:54:26;96019.84;;;12.75;100.00
50384;BME280;36301;48.310;12.786;2023-11-19T11:57:13;96036.16;;;12.63;100.00
50384;BME280;36301;48.310;12.786;2023-11-19T12:02:10;96030.38;;;12.36;100.00
50384;BME280;36301;48.310;12.786;2023-11-19T12:04:42;96024.34;;;12.42;100.00
50384;BME280;36301;48.310;12.786;2023-11-19T12:07:14;96016.75;;;12.52;100.00
50384;BME280;36301;48.310;12.786;2023-11-19T12:09:43;96032.34;;;12.53;100.00
50384;BME280;36301;48.310;12.786;2023-11-19T12:20:08;95995.09;;;12.35;100.00
50384;BME280;36301;48.310;12.786;2023-11-19T12:22:39;96024.31;;;12.39;100.00
50384;BME280;36301;48.310;12.786;2023-11-19T12:25:08;96013.69;;;12.32;100.00
50384;BME280;36301;48.310;12.786;2023-11-19T12:27:36;96017.91;;;12.61;100.00
50384;BME280;36301;48.310;12.786;2023-11-19T12:30:03;96008.84;;;12.77;100.00
50384;BME280;36301;48.310;12.786;2023-11-19T12:32:42;96013.03;;;12.85;100.00
50384;BME280;36301;48.310;12.786;2023-11-19T12:35:10;96005.06;;;12.92;100.00
50384;BME280;36301;48.310;12.786;2023-11-19T12:40:23;95994.81;;;12.97;100.00
50384;BME280;36301;48.310;12.786;2023-11-19T12:42:52;95986.84;;;13.15;100.00
50384;BME280;36301;48.310;12.786;2023-11-19T12:45:20;95986.84;;;13.22;100.00
50384;BME280;36301;48.310;12.786;2023-11-19T12:47:48;95989.09;;;13.45;100.00
50384;BME280;36301;48.310;12.786;2023-11-19T12:50:17;95984.16;;;13.47;100.00
50384;BME280;36301;48.310;12.786;2023-11-19T12:52:58;95975.06;;;13.41;100.00
50384;BME280;36301;48.310;12.786;2023-11-19T12:55:30;95974.31;;;13.30;100.00
50384;BME280;36301;48.310;12.786;2023-11-19T12:57:59;95977.72;;;13.31;100.00
50384;BME280;36301;48.310;12.786;2023-11-19T13:00:26;95977.34;;;13.39;100.00
50384;BME280;36301;48.310;12.786;2023-11-19T13:02:55;95967.47;;;13.43;100.00
50384;BME280;36301;48.310;12.786;2023-11-19T13:08:00;95975.84;;;13.38;100.00
50384;BME280;36301;48.310;12.786;2023-11-19T13:10:27;95969.03;;;13.23;100.00
50384;BME280;36301;48.310;12.786;2023-11-19T13:15:27;95967.84;;;12.95;100.00
50384;BME280;36301;48.310;12.786;2023-11-19T13:17:55;95977.72;;;12.91;100.00
50384;BME280;36301;48.310;12.786;2023-11-19T13:20:22;95972.78;;;12.90;100.00
50384;BME280;36301;48.310;12.786;2023-11-19T13:23:02;95985.69;;;13.06;100.00